Time;durP1;ratioP1;P1;durP2;ratioP2;P2;SDS_P1;SDS_P2;PMS_P1;PMS_P2;Temp;Humidity;BMP_temperature;BMP_pressure;BME280_temperature;BME280_humidity;BME280_pressure;Samples;Min_cycle;Max_cycle;Signal;HPM_P1;HPM_P2
2022/06/20 00:02:24;;;;;;;7.30;1.70;;;14.30;78.00;;;;;;4943564;28;20065;-78
2022/06/20 00:04:53;;;;;;;3.90;1.83;;;14.20;78.00;;;;;;4959860;28;20043;-77
2022/06/20 00:07:19;;;;;;;7.63;1.80;;;14.20;77.90;;;;;;4978483;28;20386;-77
2022/06/20 00:09:45;;;;;;;6.30;1.63;;;14.20;78.00;;;;;;4978664;28;20042;-77
2022/06/20 00:12:21;;;;;;;6.22;1.48;;;14.20;77.80;;;;;;4978890;28;20034;-78
2022/06/20 00:14:50;;;;;;;5.57;1.60;;;14.10;77.70;;;;;;4979322;28;20084;-78
2022/06/20 00:17:16;;;;;;;4.65;1.58;;;14.10;77.70;;;;;;4979149;28;20050;-77
2022/06/20 00:19:45;;;;;;;5.60;1.55;;;14.10;77.70;;;;;;4978577;28;20061;-77
2022/06/20 00:22:11;;;;;;;6.35;2.15;;;14.00;77.80;;;;;;4962852;28;20578;-78
2022/06/20 00:24:37;;;;;;;7.43;1.92;;;14.00;78.00;;;;;;4978680;28;20048;-78
2022/06/20 00:27:06;;;;;;;6.63;1.60;;;14.00;78.00;;;;;;4962802;28;20072;-78
2022/06/20 00:29:37;;;;;;;8.45;1.95;;;14.00;78.10;;;;;;4946728;28;20034;-78
2022/06/20 00:32:04;;;;;;;3.60;1.60;;;14.00;78.10;;;;;;4978428;28;20045;-77
2022/06/20 00:34:30;;;;;;;5.03;1.27;;;13.90;78.20;;;;;;4962712;28;20371;-77
2022/06/20 00:36:56;;;;;;;6.38;1.83;;;13.90;78.10;;;;;;4962412;28;20038;-78
2022/06/20 00:39:22;;;;;;;8.88;1.73;;;13.90;78.20;;;;;;4961904;28;20046;-78
2022/06/20 00:41:49;;;;;;;5.80;1.58;;;13.90;78.20;;;;;;4978079;28;20040;-78
2022/06/20 00:44:21;;;;;;;5.47;1.67;;;13.90;78.30;;;;;;4978108;28;20042;-78
2022/06/20 00:46:51;;;;;;;4.85;1.67;;;13.80;78.20;;;;;;4962137;28;20100;-77
2022/06/20 00:49:22;;;;;;;4.78;1.30;;;13.80;78.30;;;;;;4978754;28;20490;-78
2022/06/20 00:52:03;;;;;;;4.35;1.42;;;13.80;78.20;;;;;;4977947;28;20038;-78
2022/06/20 00:54:39;;;;;;;7.07;1.52;;;13.80;78.10;;;;;;4962138;28;20038;-77
2022/06/20 00:57:20;;;;;;;6.93;1.60;;;13.80;77.80;;;;;;4978592;28;20366;-77
2022/06/20 00:59:55;;;;;;;7.38;1.95;;;13.80;77.90;;;;;;4978068;28;20049;-77
2022/06/20 01:02:28;;;;;;;5.38;1.30;;;13.90;77.80;;;;;;4977993;28;20039;-78
2022/06/20 01:05:11;;;;;;;6.97;1.80;;;13.80;77.80;;;;;;4961860;28;20501;-78
2022/06/20 01:07:39;;;;;;;4.15;1.38;;;13.80;77.90;;;;;;4977411;28;20222;-78
2022/06/20 01:10:08;;;;;;;5.03;1.65;;;13.80;77.80;;;;;;4977542;28;20046;-77
2022/06/20 01:12:47;;;;;;;6.25;1.73;;;13.80;77.90;;;;;;4978150;28;20046;-77
2022/06/20 01:15:26;;;;;;;9.00;1.45;;;13.70;78.20;;;;;;4961629;28;20045;-78
2022/06/20 01:17:53;;;;;;;4.53;1.55;;;13.70;78.30;;;;;;4961432;28;20490;-77
2022/06/20 01:20:25;;;;;;;8.20;2.17;;;13.70;78.50;;;;;;4945325;28;20038;-78
2022/06/20 01:23:18;;;;;;;4.65;2.03;;;13.70;78.40;;;;;;4977578;28;20039;-78
2022/06/20 01:25:52;;;;;;;13.18;2.47;;;13.70;78.50;;;;;;4961225;28;20054;-78
2022/06/20 01:28:22;;;;;;;12.27;1.88;;;13.70;78.60;;;;;;4977762;28;20042;-78
2022/06/20 01:30:49;;;;;;;5.75;1.80;;;13.70;78.70;;;;;;4977315;28;20053;-78
2022/06/20 01:33:18;;;;;;;6.70;2.22;;;13.60;78.80;;;;;;4961581;28;20053;-78
2022/06/20 01:38:29;;;;;;;;;;;13.60;78.50;;;;;;4977571;28;20038;-77
2022/06/20 01:43:40;;;;;;;3.83;1.92;;;13.50;78.80;;;;;;4977300;28;20049;-78
2022/06/20 01:46:11;;;;;;;5.53;2.05;;;13.40;79.00;;;;;;4976955;28;20050;-78
2022/06/20 01:48:52;;;;;;;6.68;1.75;;;13.40;79.10;;;;;;4977012;28;20045;-77
2022/06/20 01:51:22;;;;;;;6.15;2.10;;;13.30;79.20;;;;;;4961215;28;20046;-78
2022/06/20 01:53:50;;;;;;;7.80;2.60;;;13.30;79.30;;;;;;4960953;28;20045;-77
2022/06/20 01:56:18;;;;;;;7.20;2.00;;;13.30;79.50;;;;;;4961232;28;20382;-77
2022/06/20 01:58:53;;;;;;;6.80;1.90;;;13.20;79.60;;;;;;4976899;28;20060;-78
2022/06/20 02:01:19;;;;;;;5.00;2.00;;;13.20;79.80;;;;;;4977343;28;20386;-78
2022/06/20 02:03:47;;;;;;;7.28;2.22;;;13.10;79.80;;;;;;4976952;28;20046;-78
2022/06/20 02:06:15;;;;;;;6.78;2.00;;;13.10;80.10;;;;;;4976805;28;20062;-77
2022/06/20 02:08:43;;;;;;;7.28;2.50;;;13.00;80.00;;;;;;4960699;28;20038;-78
2022/06/20 02:11:17;;;;;;;8.65;2.20;;;13.10;79.80;;;;;;4976767;28;20034;-78
2022/06/20 02:13:46;;;;;;;8.05;2.17;;;13.00;79.90;;;;;;4977037;28;20402;-78
2022/06/20 02:16:17;;;;;;;7.70;2.42;;;13.00;80.00;;;;;;4976879;28;20092;-78
2022/06/20 02:18:46;;;;;;;8.57;2.58;;;13.00;80.10;;;;;;4976554;28;20050;-78
2022/06/20 02:21:24;;;;;;;4.25;1.90;;;13.00;80.20;;;;;;4945225;28;20427;-78
2022/06/20 02:23:55;;;;;;;9.63;2.63;;;12.90;80.40;;;;;;4976612;28;20042;-78
2022/06/20 02:26:22;;;;;;;9.15;2.80;;;12.90;80.60;;;;;;4976634;28;20112;-78
2022/06/20 02:29:05;;;;;;;8.10;2.63;;;12.80;80.60;;;;;;4960512;28;20045;-78
2022/06/20 02:31:31;;;;;;;5.20;2.80;;;12.80;80.80;;;;;;4976757;28;20061;-78
2022/06/20 02:33:56;;;;;;;8.98;2.67;;;12.80;80.70;;;;;;4947721;28;20482;-78
2022/06/20 02:36:23;;;;;;;7.32;3.15;;;12.80;80.90;;;;;;4980939;28;20087;-78
2022/06/20 02:38:49;;;;;;;8.48;3.20;;;12.80;81.10;;;;;;4964714;28;20049;-77
2022/06/20 02:41:18;;;;;;;9.80;3.10;;;12.80;81.30;;;;;;4964115;28;20045;-77
2022/06/20 02:43:53;;;;;;;4.95;2.67;;;12.80;81.30;;;;;;4980718;28;20109;-78
2022/06/20 02:46:23;;;;;;;7.22;2.65;;;12.70;82.20;;;;;;4980509;28;20375;-77
2022/06/20 02:48:52;;;;;;;5.10;2.58;;;12.60;81.70;;;;;;4980336;28;20046;-78
2022/06/20 02:51:28;;;;;;;7.63;3.10;;;12.60;81.90;;;;;;4980294;28;20053;-77
2022/06/20 02:54:01;;;;;;;6.28;2.65;;;12.50;82.10;;;;;;4980236;28;20042;-77
2022/06/20 02:56:33;;;;;;;6.50;2.65;;;12.40;81.90;;;;;;4963825;28;20046;-78
2022/06/20 02:59:04;;;;;;;6.10;3.13;;;12.30;82.50;;;;;;4980197;28;20390;-77
2022/06/20 03:01:52;;;;;;;9.52;2.60;;;12.30;82.30;;;;;;4963710;28;20042;-78
2022/06/20 03:04:20;;;;;;;9.27;2.90;;;12.30;82.20;;;;;;4979834;28;20495;-78
2022/06/20 03:06:57;;;;;;;6.97;2.35;;;12.30;82.20;;;;;;4963418;28;20498;-77
2022/06/20 03:09:33;;;;;;;9.57;3.30;;;12.30;82.30;;;;;;4979597;28;20038;-77
2022/06/20 03:12:02;;;;;;;6.43;3.10;;;12.30;82.40;;;;;;4980278;28;20034;-77
2022/06/20 03:14:36;;;;;;;8.27;2.72;;;12.30;82.40;;;;;;4963953;28;20042;-77
2022/06/20 03:17:04;;;;;;;8.00;3.13;;;12.30;82.60;;;;;;4980087;28;20061;-77
2022/06/20 03:19:32;;;;;;;8.18;3.42;;;12.30;82.30;;;;;;4979839;28;20486;-78
2022/06/20 03:22:02;;;;;;;6.88;3.60;;;12.30;82.40;;;;;;4963619;28;20080;-77
2022/06/20 03:24:30;;;;;;;6.63;2.72;;;12.20;82.40;;;;;;4979912;28;20049;-77
2022/06/20 03:26:57;;;;;;;6.10;2.72;;;12.30;82.60;;;;;;4979594;28;20042;-77
2022/06/20 03:29:25;;;;;;;7.20;3.10;;;12.20;82.50;;;;;;4979590;28;20045;-77
2022/06/20 03:31:52;;;;;;;7.50;2.88;;;12.30;82.60;;;;;;4963604;28;20049;-77
2022/06/20 03:34:18;;;;;;;7.40;3.60;;;12.30;82.70;;;;;;4979449;28;20100;-77
2022/06/20 03:36:47;;;;;;;4.95;2.75;;;12.30;82.60;;;;;;4979325;28;20512;-77
2022/06/20 03:39:13;;;;;;;7.35;2.58;;;12.40;82.70;;;;;;4979392;28;20042;-77
2022/06/20 03:41:40;;;;;;;7.05;3.13;;;12.40;82.20;;;;;;4963398;28;20073;-77
2022/06/20 03:44:20;;;;;;;6.63;2.78;;;12.30;82.20;;;;;;4978633;28;20128;-77
2022/06/20 03:47:08;;;;;;;8.45;3.17;;;12.30;82.20;;;;;;4979812;28;20418;-77
2022/06/20 03:49:39;;;;;;;8.55;3.55;;;12.30;82.40;;;;;;4979761;28;20050;-77
2022/06/20 03:52:16;;;;;;;8.05;3.58;;;12.20;82.30;;;;;;4979290;28;20042;-77
2022/06/20 03:54:55;;;;;;;12.05;4.10;;;12.20;82.50;;;;;;4979128;28;20482;-77
2022/06/20 03:57:30;;;;;;;9.18;3.50;;;12.20;82.70;;;;;;4963232;28;20616;-77
2022/06/20 04:00:15;;;;;;;9.02;3.70;;;12.20;82.70;;;;;;4978968;28;20494;-78
2022/06/20 04:02:50;;;;;;;10.73;3.42;;;12.20;82.80;;;;;;4979124;28;20497;-77
2022/06/20 04:05:25;;;;;;;9.55;4.20;;;12.20;82.80;;;;;;4979132;28;20050;-77
2022/06/20 04:08:23;;;;;;;9.63;3.80;;;12.30;82.70;;;;;;4995121;28;20055;-77
2022/06/20 04:10:59;;;;;;;7.20;3.65;;;12.40;82.50;;;;;;4960698;28;20050;-77
2022/06/20 04:13:47;;;;;;;10.52;3.83;;;12.40;82.50;;;;;;4963255;28;20042;-77
2022/06/20 04:16:15;;;;;;;9.13;4.35;;;12.40;82.40;;;;;;4978845;28;20125;-77
2022/06/20 04:18:51;;;;;;;8.95;3.70;;;12.40;82.40;;;;;;4978576;28;20038;-77
2022/06/20 04:21:23;;;;;;;9.85;3.83;;;12.40;82.60;;;;;;4978955;28;20482;-77
2022/06/20 04:24:02;;;;;;;8.68;3.47;;;12.40;82.50;;;;;;4979130;28;20053;-77
2022/06/20 04:26:35;;;;;;;9.07;3.47;;;12.50;82.50;;;;;;4978850;28;20038;-77
2022/06/20 04:29:22;;;;;;;12.13;3.90;;;12.50;82.40;;;;;;4978758;28;20470;-77
2022/06/20 04:32:06;;;;;;;11.15;3.95;;;12.50;82.30;;;;;;4963027;28;20038;-77
2022/06/20 04:34:43;;;;;;;8.20;3.95;;;12.50;82.20;;;;;;4978450;28;20082;-77
2022/06/20 04:37:47;;;;;;;8.55;4.60;;;12.60;82.20;;;;;;4978301;28;20046;-78
2022/06/20 04:40:25;;;;;;;11.48;4.50;;;12.70;81.90;;;;;;4938950;29;20170;-77
2022/06/20 04:42:52;;;;;;;11.27;4.15;;;12.70;81.70;;;;;;4974049;28;20047;-78
2022/06/20 04:45:52;;;;;;;10.57;3.95;;;12.70;81.80;;;;;;4978412;28;20046;-78
2022/06/20 04:48:21;;;;;;;8.52;4.35;;;12.80;81.60;;;;;;4978101;28;20050;-78
2022/06/20 04:50:56;;;;;;;8.60;3.95;;;12.80;81.60;;;;;;4977956;28;20038;-78
2022/06/20 04:53:28;;;;;;;10.57;4.30;;;12.90;81.50;;;;;;4978479;28;20034;-77
2022/06/20 04:55:57;;;;;;;12.82;4.30;;;13.00;81.50;;;;;;4977172;28;20057;-78
2022/06/20 04:58:35;;;;;;;11.20;4.70;;;13.00;81.50;;;;;;4978046;28;20045;-77
2022/06/20 05:01:02;;;;;;;9.05;4.05;;;13.00;81.40;;;;;;4978065;28;20038;-77
2022/06/20 05:03:36;;;;;;;8.40;3.80;;;13.10;81.60;;;;;;4961856;28;20050;-78
2022/06/20 05:06:05;;;;;;;12.02;3.97;;;13.10;81.70;;;;;;4977672;28;20063;-77
2022/06/20 05:08:35;;;;;;;14.45;4.10;;;13.10;81.70;;;;;;4994091;28;20050;-77
2022/06/20 05:11:15;;;;;;;12.27;5.00;;;13.20;81.90;;;;;;4978043;28;20398;-76
2022/06/20 05:13:47;;;;;;;8.40;4.07;;;13.40;81.80;;;;;;4978026;28;20390;-78
2022/06/20 05:16:33;;;;;;;12.25;4.13;;;13.50;81.40;;;;;;4977347;28;20049;-78
2022/06/20 05:19:05;;;;;;;11.65;4.82;;;13.50;81.50;;;;;;4977700;28;20046;-78
2022/06/20 05:21:39;;;;;;;12.55;5.45;;;13.50;81.70;;;;;;4961381;28;20050;-77
2022/06/20 05:24:19;;;;;;;10.57;3.90;;;13.60;81.50;;;;;;4961686;28;20401;-78
2022/06/20 05:26:48;;;;;;;11.30;4.97;;;13.70;81.50;;;;;;4977200;28;20080;-79
2022/06/20 05:29:35;;;;;;;7.55;3.88;;;13.80;81.50;;;;;;4961187;28;20097;-77
2022/06/20 05:32:05;;;;;;;8.70;3.88;;;13.90;81.60;;;;;;4977330;28;20088;-78
2022/06/20 05:34:41;;;;;;;9.35;4.22;;;14.00;81.00;;;;;;4977413;28;20061;-77
2022/06/20 05:37:30;;;;;;;11.52;3.17;;;14.10;80.30;;;;;;4977302;28;20049;-76
2022/06/20 05:40:16;;;;;;;8.55;2.92;;;14.20;79.40;;;;;;4977412;28;20038;-82
2022/06/20 05:42:41;;;;;;;7.80;3.35;;;14.30;78.80;;;;;;4977332;28;20180;-81
2022/06/20 05:45:19;;;;;;;5.93;3.00;;;14.30;77.90;;;;;;4960490;28;20125;-80
2022/06/20 05:47:54;;;;;;;7.93;3.55;;;14.50;77.50;;;;;;4976436;28;20034;-79
2022/06/20 05:50:34;;;;;;;8.02;3.08;;;14.50;77.30;;;;;;4960228;28;20042;-80
2022/06/20 05:53:04;;;;;;;7.88;2.92;;;14.50;77.10;;;;;;4976524;28;20077;-79
2022/06/20 05:55:45;;;;;;;9.55;3.35;;;14.60;77.20;;;;;;4976560;28;20042;-80
2022/06/20 05:58:36;;;;;;;7.85;3.78;;;14.70;76.90;;;;;;4976539;28;20038;-79
2022/06/20 06:01:07;;;;;;;7.97;3.90;;;14.70;77.20;;;;;;4975918;28;20082;-80
2022/06/20 06:03:59;;;;;;;10.40;3.80;;;14.80;77.30;;;;;;4976702;28;20056;-80
2022/06/20 06:06:32;;;;;;;9.13;3.53;;;14.90;76.10;;;;;;4957289;28;20103;-80
2022/06/20 06:09:11;;;;;;;15.10;3.17;;;14.90;75.70;;;;;;4992768;28;20042;-80
2022/06/20 06:11:47;;;;;;;8.77;3.97;;;14.80;75.70;;;;;;4976374;28;20042;-78
2022/06/20 06:14:28;;;;;;;12.23;3.83;;;14.80;75.50;;;;;;4976263;28;20049;-80
2022/06/20 06:17:02;;;;;;;11.40;3.42;;;14.80;76.00;;;;;;4976212;28;20285;-79
2022/06/20 06:19:47;;;;;;;;;;;14.80;76.20;;;;;;4993167;28;20121;-80
2022/06/20 06:22:21;;;;;;;11.02;3.78;;;15.00;75.60;;;;;;4976479;28;20271;-79
2022/06/20 06:24:52;;;;;;;7.95;3.33;;;15.10;75.20;;;;;;4976395;28;20093;-79
2022/06/20 06:27:23;;;;;;;10.20;3.42;;;15.30;74.70;;;;;;4976239;28;20038;-81
2022/06/20 06:30:00;;;;;;;10.93;4.13;;;15.40;74.30;;;;;;4976212;28;20073;-80
2022/06/20 06:32:47;;;;;;;7.60;3.70;;;15.60;74.20;;;;;;4976237;28;20042;-79
2022/06/20 06:35:29;;;;;;;5.88;2.80;;;15.70;72.70;;;;;;4976026;28;20491;-80
2022/06/20 06:38:09;;;;;;;4.80;2.58;;;15.60;72.50;;;;;;4960053;28;20096;-81
2022/06/20 06:40:49;;;;;;;11.63;3.22;;;15.60;72.70;;;;;;4976374;28;20043;-78
2022/06/20 06:43:40;;;;;;;9.38;3.05;;;15.50;73.10;;;;;;4959847;28;20125;-80
2022/06/20 06:46:14;;;;;;;8.35;2.45;;;15.50;73.00;;;;;;4957917;28;20109;-80
2022/06/20 06:48:45;;;;;;;9.25;3.53;;;15.50;73.10;;;;;;4957236;28;20121;-79
2022/06/20 06:51:52;;;;;;;9.45;3.30;;;15.50;73.50;;;;;;4957324;28;20073;-81
2022/06/20 06:54:27;;;;;;;6.18;2.70;;;15.40;73.80;;;;;;4954483;28;20039;-84
2022/06/20 06:56:59;;;;;;;12.00;3.70;;;15.50;73.90;;;;;;4954749;28;20073;-83
2022/06/20 06:59:46;;;;;;;9.18;3.22;;;15.50;74.50;;;;;;4956097;28;20058;-83
2022/06/20 07:02:17;;;;;;;6.57;2.35;;;15.70;74.40;;;;;;4970977;28;20050;-84
2022/06/20 07:05:05;;;;;;;9.80;3.22;;;15.70;71.40;;;;;;4970687;28;20121;-83
2022/06/20 07:07:44;;;;;;;4.18;1.80;;;15.90;70.50;;;;;;4966068;28;20414;-81
2022/06/20 07:10:20;;;;;;;4.63;1.85;;;16.00;70.30;;;;;;4951801;28;20046;-84
2022/06/20 07:12:53;;;;;;;4.82;1.77;;;16.00;68.90;;;;;;4965097;28;20139;-83
2022/06/20 07:15:22;;;;;;;3.08;1.80;;;16.00;69.20;;;;;;4951275;28;20078;-83
2022/06/20 07:17:58;;;;;;;5.30;2.03;;;16.00;69.70;;;;;;4951563;28;20101;-84
2022/06/20 07:20:28;;;;;;;14.60;3.47;;;16.00;69.20;;;;;;4956254;28;20574;-82
2022/06/20 07:22:57;;;;;;;6.93;3.00;;;16.10;69.50;;;;;;4971284;28;20050;-81
2022/06/20 07:25:30;;;;;;;9.05;2.38;;;16.00;70.20;;;;;;4956119;28;20047;-82
2022/06/20 07:28:21;;;;;;;7.30;2.47;;;16.00;70.40;;;;;;4971616;28;20386;-82
2022/06/20 07:30:55;;;;;;;4.63;1.98;;;16.10;70.80;;;;;;4956390;28;20050;-83
2022/06/20 07:33:32;;;;;;;5.53;2.30;;;16.20;69.70;;;;;;4954819;28;20049;-83
2022/06/20 07:36:01;;;;;;;5.28;2.08;;;16.20;68.90;;;;;;4954857;28;20298;-84
2022/06/20 07:38:51;;;;;;;3.75;1.50;;;16.20;68.40;;;;;;4955605;28;20050;-83
2022/06/20 07:41:23;;;;;;;5.10;2.05;;;16.30;66.30;;;;;;4954683;28;20046;-81
2022/06/20 07:43:55;;;;;;;6.03;2.08;;;16.40;65.70;;;;;;4970207;28;20621;-84
2022/06/20 07:46:44;;;;;;;4.90;2.47;;;16.40;65.80;;;;;;4955690;28;20534;-82
2022/06/20 07:49:24;;;;;;;9.18;2.42;;;16.50;66.90;;;;;;4955427;28;20121;-83
2022/06/20 07:51:56;;;;;;;5.55;1.77;;;16.50;67.10;;;;;;4988203;28;20085;-84
2022/06/20 07:54:39;;;;;;;6.53;2.38;;;16.60;67.80;;;;;;4970440;28;20716;-84
2022/06/20 07:57:11;;;;;;;5.57;2.08;;;16.70;66.00;;;;;;4954522;28;20046;-84
2022/06/20 08:00:09;;;;;;;5.82;2.30;;;16.70;65.80;;;;;;4955462;28;20126;-84
2022/06/20 08:02:53;;;;;;;4.75;1.73;;;16.80;66.50;;;;;;4948889;28;20090;-83
2022/06/20 08:05:24;;;;;;;5.97;2.95;;;16.90;66.80;;;;;;4963968;28;20070;-82
2022/06/20 08:08:22;;;;;;;12.68;3.47;;;16.90;66.10;;;;;;4983075;28;20081;-82
2022/06/20 08:11:09;;;;;;;8.35;2.58;;;16.90;66.60;;;;;;4975215;28;20117;-82
2022/06/20 08:13:55;;;;;;;4.60;1.52;;;16.90;67.50;;;;;;4975192;28;20794;-81
2022/06/20 08:16:28;;;;;;;7.07;1.77;;;17.00;65.60;;;;;;4958332;28;20069;-81
2022/06/20 08:18:53;;;;;;;8.02;2.40;;;17.20;65.00;;;;;;4999823;28;20058;-83
2022/06/20 08:21:24;;;;;;;9.98;1.90;;;17.40;65.10;;;;;;4942357;28;20050;-83
2022/06/20 08:24:08;;;;;;;6.50;2.72;;;17.40;65.40;;;;;;4972750;28;20108;-83
2022/06/20 08:26:42;;;;;;;7.88;2.25;;;17.30;65.50;;;;;;4973505;28;20042;-86
2022/06/20 08:29:19;;;;;;;4.63;1.45;;;17.20;63.80;;;;;;5001394;28;20042;-86
2022/06/20 08:31:55;;;;;;;7.22;1.75;;;17.10;63.20;;;;;;4958586;28;20038;-87
2022/06/20 08:34:30;;;;;;;12.55;2.63;;;17.30;63.40;;;;;;4980550;28;20498;-83
2022/06/20 08:37:07;;;;;;;7.68;2.03;;;17.40;64.40;;;;;;4997378;28;20065;-78
2022/06/20 08:39:41;;;;;;;5.72;2.38;;;17.40;65.30;;;;;;4997678;28;20490;-79
2022/06/20 08:42:24;;;;;;;7.82;2.45;;;17.40;65.40;;;;;;4971115;28;20049;-80
2022/06/20 08:44:58;;;;;;;4.90;1.70;;;17.30;65.30;;;;;;4969495;28;20046;-79
2022/06/20 08:48:03;;;;;;;5.75;2.17;;;17.40;62.20;;;;;;4982677;28;20234;-79
2022/06/20 08:50:54;;;;;;;8.25;2.10;;;17.40;63.30;;;;;;4946708;28;20049;-80
2022/06/20 08:53:41;;;;;;;9.30;2.03;;;17.60;63.90;;;;;;4969777;28;20061;-78
2022/06/20 08:56:25;;;;;;;7.25;1.85;;;17.80;64.40;;;;;;4995126;28;20136;-79
2022/06/20 08:59:06;;;;;;;4.32;1.88;;;17.80;63.80;;;;;;4972646;28;20046;-79
2022/06/20 09:01:51;;;;;;;8.90;1.58;;;17.70;63.80;;;;;;4955571;28;20583;-79
2022/06/20 09:04:49;;;;;;;8.88;1.83;;;17.60;62.20;;;;;;4977039;28;20054;-78
2022/06/20 09:07:24;;;;;;;8.73;2.17;;;17.70;63.50;;;;;;4970283;28;20066;-77
2022/06/20 09:10:10;;;;;;;4.40;2.17;;;18.00;64.80;;;;;;4980638;28;20050;-78
2022/06/20 09:12:59;;;;;;;4.32;1.88;;;18.00;62.70;;;;;;4969102;28;20049;-78
2022/06/20 09:15:34;;;;;;;5.15;1.75;;;17.90;63.00;;;;;;4988567;28;20050;-78
2022/06/20 09:18:12;;;;;;;11.90;2.33;;;18.00;62.60;;;;;;4994118;28;20054;-78
2022/06/20 09:20:50;;;;;;;5.30;1.70;;;18.00;62.10;;;;;;4996031;28;20382;-79
2022/06/20 09:23:44;;;;;;;6.40;1.80;;;18.10;61.20;;;;;;4953594;28;20149;-79
2022/06/20 09:26:19;;;;;;;3.47;1.48;;;18.20;61.00;;;;;;4954533;28;20050;-78
2022/06/20 09:29:03;;;;;;;8.43;1.85;;;18.10;61.60;;;;;;4970639;28;21280;-78
2022/06/20 09:31:37;;;;;;;6.88;2.10;;;18.30;62.20;;;;;;4995253;28;20054;-77
2022/06/20 09:34:27;;;;;;;6.45;2.83;;;18.40;61.80;;;;;;4994139;28;20054;-78
2022/06/20 09:37:11;;;;;;;5.07;2.00;;;18.50;62.10;;;;;;4968981;28;20446;-77
2022/06/20 09:39:37;;;;;;;;;;;18.50;61.70;;;;;;4977998;28;20060;-78
2022/06/20 09:42:13;;;;;;;5.95;2.40;;;18.40;62.50;;;;;;4967212;28;20381;-77
2022/06/20 09:44:41;;;;;;;7.53;2.75;;;18.10;62.60;;;;;;4969153;28;20046;-78
2022/06/20 09:47:22;;;;;;;6.57;2.45;;;18.00;63.60;;;;;;4993847;28;20050;-78
2022/06/20 09:49:59;;;;;;;7.30;2.42;;;18.00;64.00;;;;;;4955591;28;20581;-77
2022/06/20 09:52:51;;;;;;;9.85;2.67;;;18.20;62.30;;;;;;4968921;28;20516;-79
2022/06/20 09:55:19;;;;;;;4.93;2.00;;;18.50;62.50;;;;;;4970082;28;20050;-77
2022/06/20 09:58:07;;;;;;;16.88;3.60;;;18.70;61.70;;;;;;4969725;28;20096;-79
2022/06/20 10:00:55;;;;;;;7.00;2.15;;;18.90;60.90;;;;;;4971396;28;20088;-78
2022/06/20 10:03:29;;;;;;;4.97;2.08;;;19.00;60.90;;;;;;4969450;28;20053;-79
2022/06/20 10:06:07;;;;;;;4.97;2.35;;;18.90;60.00;;;;;;4953801;28;20509;-78
2022/06/20 10:08:39;;;;;;;4.40;1.92;;;18.80;60.40;;;;;;4987104;28;20058;-79
2022/06/20 10:11:18;;;;;;;8.95;2.55;;;19.00;60.70;;;;;;4971803;28;20069;-79
2022/06/20 10:13:52;;;;;;;7.00;2.75;;;19.00;60.30;;;;;;4970136;28;20065;-79
2022/06/20 10:16:36;;;;;;;6.32;2.20;;;18.90;61.50;;;;;;4993370;28;20502;-79
2022/06/20 10:19:15;;;;;;;17.48;4.03;;;18.70;60.60;;;;;;4970999;28;20038;-79
2022/06/20 10:21:52;;;;;;;8.98;2.55;;;18.80;61.90;;;;;;4955658;28;20093;-78
2022/06/20 10:24:42;;;;;;;4.07;1.98;;;19.00;61.50;;;;;;4968100;28;20053;-78
2022/06/20 10:27:40;;;;;;;8.15;2.42;;;19.30;60.50;;;;;;4975371;28;20137;-77
2022/06/20 10:30:13;;;;;;;4.93;2.10;;;19.40;59.70;;;;;;4985886;28;20061;-78
2022/06/20 10:32:54;;;;;;;5.88;1.80;;;19.60;58.70;;;;;;4968670;28;20042;-77
2022/06/20 10:35:35;;;;;;;6.10;2.00;;;19.70;59.90;;;;;;4953551;28;20062;-77
2022/06/20 10:38:11;;;;;;;6.43;2.20;;;19.90;59.40;;;;;;4969154;28;20046;-77
2022/06/20 10:41:16;;;;;;;7.13;1.95;;;19.70;58.70;;;;;;4970651;28;20057;-78
2022/06/20 10:43:43;;;;;;;4.57;1.80;;;19.60;58.70;;;;;;4967821;28;20050;-77
2022/06/20 10:46:36;;;;;;;5.22;2.30;;;19.70;58.40;;;;;;4994092;28;20042;-78
2022/06/20 10:49:37;;;;;;;4.45;1.75;;;19.90;58.00;;;;;;4970557;28;20070;-78
2022/06/20 10:52:26;;;;;;;4.25;1.55;;;20.00;56.30;;;;;;4969091;28;20050;-79
2022/06/20 10:55:22;;;;;;;4.00;1.23;;;20.00;56.10;;;;;;4997646;28;20498;-80
2022/06/20 10:58:08;;;;;;;3.63;1.65;;;20.00;52.90;;;;;;4954188;28;20058;-78
2022/06/20 11:00:38;;;;;;;3.88;1.50;;;20.10;54.10;;;;;;4970622;28;20089;-79
2022/06/20 11:03:35;;;;;;;3.65;2.15;;;20.00;55.00;;;;;;4977389;28;20050;-79
2022/06/20 11:06:12;;;;;;;6.28;2.53;;;19.90;55.50;;;;;;5000852;28;20513;-79
2022/06/20 11:09:08;;;;;;;4.40;1.85;;;19.90;57.00;;;;;;4976871;28;20130;-78
2022/06/20 11:11:58;;;;;;;8.10;2.10;;;19.70;57.60;;;;;;4973448;28;20058;-78
2022/06/20 11:14:44;;;;;;;4.50;2.10;;;19.20;58.10;;;;;;4982555;28;20034;-79
2022/06/20 11:17:29;;;;;;;7.68;3.47;;;18.90;60.10;;;;;;4974702;28;20402;-78
2022/06/20 11:20:20;;;;;;;9.85;2.15;;;18.70;61.00;;;;;;4976535;28;20042;-78
2022/06/20 11:23:14;;;;;;;5.05;2.10;;;18.50;61.70;;;;;;4992258;28;20122;-78
2022/06/20 11:25:52;;;;;;;4.10;1.45;;;18.20;62.10;;;;;;4998175;28;20042;-78
2022/06/20 11:28:51;;;;;;;7.35;2.10;;;18.00;61.20;;;;;;4977446;28;20046;-79
2022/06/20 11:31:19;;;;;;;3.33;1.85;;;18.00;59.40;;;;;;4972172;28;20042;-79
2022/06/20 11:34:08;;;;;;;3.78;1.85;;;18.00;59.10;;;;;;4972962;28;20049;-78
2022/06/20 11:36:58;;;;;;;7.55;2.20;;;18.00;60.20;;;;;;4972372;28;20564;-79
2022/06/20 11:40:00;;;;;;;6.60;2.05;;;18.00;61.30;;;;;;4980075;28;20038;-79
2022/06/20 11:42:38;;;;;;;5.82;1.92;;;18.00;62.50;;;;;;4973035;28;20100;-78
2022/06/20 11:45:16;;;;;;;5.60;1.85;;;18.00;62.60;;;;;;4972859;28;20064;-78
2022/06/20 11:47:52;;;;;;;6.57;2.35;;;18.00;62.50;;;;;;4971312;28;20373;-79
2022/06/20 11:50:47;;;;;;;4.55;2.50;;;18.00;62.80;;;;;;4978005;28;20498;-80
2022/06/20 11:53:28;;;;;;;5.80;1.73;;;17.90;63.10;;;;;;4971071;28;20100;-79
2022/06/20 11:56:10;;;;;;;8.25;2.72;;;17.90;62.50;;;;;;4955494;28;20053;-79
2022/06/20 11:58:57;;;;;;;4.72;2.03;;;17.90;62.50;;;;;;4975825;28;20541;-79
2022/06/20 12:01:28;;;;;;;3.03;1.60;;;18.00;62.90;;;;;;4960294;28;20050;-79
2022/06/20 12:04:08;;;;;;;6.85;3.08;;;18.30;61.40;;;;;;4958646;28;20257;-80
2022/06/20 12:06:44;;;;;;;6.10;2.00;;;18.70;60.70;;;;;;4958602;28;20061;-79
2022/06/20 12:09:20;;;;;;;4.03;2.05;;;18.90;59.80;;;;;;4990791;28;20054;-79
2022/06/20 12:12:01;;;;;;;3.92;1.42;;;19.20;58.70;;;;;;5000233;28;20034;-80
2022/06/20 12:14:41;;;;;;;7.25;2.28;;;19.20;58.30;;;;;;4980970;28;20045;-80
2022/06/20 12:17:26;;;;;;;3.00;1.58;;;19.30;57.50;;;;;;5001300;28;20120;-78
2022/06/20 12:25:44;;;;;;;5.05;1.70;;;20.00;56.20;;;;;;4975154;28;20446;-80
2022/06/20 12:28:25;;;;;;;5.05;1.67;;;20.30;54.80;;;;;;4998196;28;20054;-79
2022/06/20 12:31:11;;;;;;;4.45;1.67;;;20.40;55.50;;;;;;4975246;28;20130;-80
2022/06/20 12:33:41;;;;;;;5.85;1.63;;;20.40;54.80;;;;;;4975023;28;20051;-78
2022/06/20 12:36:41;;;;;;;3.35;1.88;;;20.40;54.90;;;;;;4974129;28;20042;-79
2022/06/20 12:39:27;;;;;;;4.47;1.77;;;20.20;56.60;;;;;;4999278;28;20050;-79
2022/06/20 12:41:59;;;;;;;6.93;3.13;;;19.90;55.00;;;;;;4999730;28;20042;-79
2022/06/20 12:45:05;;;;;;;3.55;1.77;;;19.60;56.70;;;;;;4975208;28;20125;-79
2022/06/20 12:47:53;;;;;;;6.53;2.60;;;19.30;57.90;;;;;;4915285;29;20081;-79
2022/06/20 12:50:27;;;;;;;5.55;2.70;;;19.40;58.50;;;;;;4973059;28;20053;-78
2022/06/20 12:53:17;;;;;;;6.63;3.30;;;19.70;58.20;;;;;;4974083;28;20474;-80
2022/06/20 12:55:57;;;;;;;2.80;1.40;;;19.60;57.60;;;;;;4995984;28;20057;-80
2022/06/20 12:58:34;;;;;;;5.30;1.65;;;19.40;58.20;;;;;;4973582;28;20096;-79
2022/06/20 13:01:23;;;;;;;4.00;1.88;;;19.30;57.80;;;;;;4958567;28;20739;-79
2022/06/20 13:04:13;;;;;;;5.60;2.17;;;19.50;58.10;;;;;;4974955;28;20417;-79
2022/06/20 13:07:16;;;;;;;3.22;1.50;;;19.80;56.70;;;;;;4972966;28;20121;-78
2022/06/20 13:10:02;;;;;;;3.60;1.70;;;19.90;57.10;;;;;;4999724;28;20042;-78
2022/06/20 13:12:39;;;;;;;7.03;2.13;;;20.00;55.50;;;;;;4974478;28;20042;-80
2022/06/20 13:15:23;;;;;;;3.63;2.03;;;20.40;56.30;;;;;;4998837;28;20050;-79
2022/06/20 13:18:23;;;;;;;4.30;2.33;;;20.50;54.90;;;;;;4970712;28;20035;-79
2022/06/20 13:21:20;;;;;;;4.20;1.52;;;20.60;55.80;;;;;;4973547;28;20092;-79
2022/06/20 13:24:04;;;;;;;4.80;1.42;;;20.70;55.30;;;;;;4980740;28;20085;-79
2022/06/20 13:26:46;;;;;;;3.08;1.85;;;20.90;54.70;;;;;;4997870;28;20061;-79
2022/06/20 13:29:29;;;;;;;4.40;2.22;;;21.00;52.30;;;;;;4975002;28;20618;-79
2022/06/20 13:32:23;;;;;;;2.55;1.52;;;21.20;52.50;;;;;;4974440;28;20517;-79
2022/06/20 13:34:55;;;;;;;3.47;1.50;;;21.30;52.70;;;;;;4969180;28;20046;-78
2022/06/20 13:37:51;;;;;;;3.83;1.60;;;21.40;50.80;;;;;;4992873;28;20038;-79
2022/06/20 13:40:20;;;;;;;4.70;1.83;;;21.30;51.40;;;;;;4973431;28;20039;-79
2022/06/20 13:43:09;;;;;;;10.43;3.22;;;21.10;53.40;;;;;;4972199;28;20042;-80
2022/06/20 13:46:23;;;;;;;5.05;2.00;;;20.90;55.00;;;;;;4954675;28;20128;-79
2022/06/20 13:49:24;;;;;;;7.53;1.90;;;20.50;56.10;;;;;;4909837;28;20058;-78
2022/06/20 13:52:05;;;;;;;4.78;2.00;;;20.50;56.70;;;;;;4970457;28;20050;-79
2022/06/20 13:54:52;;;;;;;3.17;1.88;;;20.30;57.20;;;;;;4994745;28;20125;-79